Avare, Brazil

2:46 AM BRT on July 23, 2014 (GMT -0300)
Bauru (SBBU) Elev 2018 ft | 22.35 °S, 49.05 °W | Change Station

Current weather conditions updated 46 minutes ago

Clear
Clear
70 °F
Feels Like 70 °F
N
7
Wind Variable Wind from East

Today is forecast to be Cooler than yesterday.

Today
High -- | Low -- °F
--% Chance of Precip.
Yesterday
High -- | Low -- °F
Precip. -- in
6:54 AM 5:50 PM
Waning Crescent, 12% visible
Pressure 30.09 in
Visibility -9999.0 miles
Clouds
Dew Point 57 °F
Humidity 64%
Rainfall 0.00 in
Snow Depth Not available.
UV Not available.
Pollen Not available.
Air Quality Not available.
Flu Activity Not available.
METAR SBBU 230500Z 08006KT CAVOK 21/14 Q1019

More Conditions Fewer Conditions

Pressure 30.09 in
Visibility -9999.0 miles
Clouds
Dew Point 57 °F
Humidity 64%
Rainfall 0.00 in
Snow Depth Not available.
UV Not available.
Pollen Not available.
Air Quality Not available.
Flu Activity Not available.
METAR SBBU 230500Z 08006KT CAVOK 21/14 Q1019

More Conditions Fewer Conditions

10-Day Weather Forecast

Almanac

Astronomy

Jul. 23, 2014 Rise Set
Actual Time 6:54 AM BRT 5:50 PM BRT
Civil Twilight 6:30 AM BRT 6:14 PM BRT
Nautical Twilight 6:02 AM BRT 6:41 PM BRT
Astronomical Twilight 5:35 AM BRT 7:08 PM BRT
Moon 4:03 AM BRT 3:17 PM BRT
Length of Visible Light 11h 44m
Length of Day
10h 56m
Tomorrow will be 0m 47s longer.
Waning Crescent, 12% of the Moon is Illuminated
Today
Waning Crescent
Jul 26
New
Aug 3
First Quarter
Aug 10
Full
Aug 17
Last Quarter

Yesterday's Extremes

Country Highs Country Lows

Community

WunderPhotos

Upload Photos

1,736,515 photos uploaded!

Nearby

Snow Depth

Not available.

Earthquake Activity

City Distance Mag. Time & Date
No recent earthquake activity has been reported nearby.
Minimum magnitude displayed is 2.5.

Coastal Water Temperatures

Place Temperature
No Stations Reporting

Nearby Weather Stations

There are no personal weather stations in this area.